sensor_id;sensor_type;location;lat;lon;timestamp;P1;durP1;ratioP1;P2;durP2;ratioP2
6642;SDS011;3357;48.050;7.800;2022-10-16T00:01:25;1.20;;;1.20;;
6642;SDS011;3357;48.050;7.800;2022-10-16T00:03:54;4.40;;;1.90;;
6642;SDS011;3357;48.050;7.800;2022-10-16T00:06:21;1.50;;;1.40;;
6642;SDS011;3357;48.050;7.800;2022-10-16T00:11:26;4.03;;;1.70;;
6642;SDS011;3357;48.050;7.800;2022-10-16T00:13:58;2.70;;;1.20;;
6642;SDS011;3357;48.050;7.800;2022-10-16T00:16:27;2.63;;;1.73;;
6642;SDS011;3357;48.050;7.800;2022-10-16T00:18:54;4.10;;;1.50;;
6642;SDS011;3357;48.050;7.800;2022-10-16T00:21:21;3.17;;;1.40;;
6642;SDS011;3357;48.050;7.800;2022-10-16T00:23:56;3.53;;;1.70;;
6642;SDS011;3357;48.050;7.800;2022-10-16T00:26:24;5.47;;;1.20;;
6642;SDS011;3357;48.050;7.800;2022-10-16T00:28:50;2.43;;;1.70;;
6642;SDS011;3357;48.050;7.800;2022-10-16T00:31:16;3.90;;;1.30;;
6642;SDS011;3357;48.050;7.800;2022-10-16T00:33:43;1.73;;;1.20;;
6642;SDS011;3357;48.050;7.800;2022-10-16T00:36:10;7.87;;;1.40;;
6642;SDS011;3357;48.050;7.800;2022-10-16T00:38:37;4.00;;;1.93;;
6642;SDS011;3357;48.050;7.800;2022-10-16T00:41:09;1.40;;;1.30;;
6642;SDS011;3357;48.050;7.800;2022-10-16T00:43:41;2.23;;;2.03;;
6642;SDS011;3357;48.050;7.800;2022-10-16T00:46:13;1.47;;;1.37;;
6642;SDS011;3357;48.050;7.800;2022-10-16T00:48:41;5.57;;;1.77;;
6642;SDS011;3357;48.050;7.800;2022-10-16T00:51:10;2.30;;;1.40;;
6642;SDS011;3357;48.050;7.800;2022-10-16T00:53:35;1.50;;;1.40;;
6642;SDS011;3357;48.050;7.800;2022-10-16T00:56:01;3.60;;;1.60;;
6642;SDS011;3357;48.050;7.800;2022-10-16T00:58:27;8.53;;;1.60;;
6642;SDS011;3357;48.050;7.800;2022-10-16T01:00:52;2.50;;;1.83;;
6642;SDS011;3357;48.050;7.800;2022-10-16T01:03:26;7.67;;;2.03;;
6642;SDS011;3357;48.050;7.800;2022-10-16T01:11:41;2.27;;;1.40;;
6642;SDS011;3357;48.050;7.800;2022-10-16T01:17:14;3.03;;;1.50;;
6642;SDS011;3357;48.050;7.800;2022-10-16T01:20:00;1.73;;;1.30;;
6642;SDS011;3357;48.050;7.800;2022-10-16T01:22:34;3.30;;;1.30;;
6642;SDS011;3357;48.050;7.800;2022-10-16T01:25:25;1.47;;;1.37;;
6642;SDS011;3357;48.050;7.800;2022-10-16T01:27:56;8.57;;;1.70;;
6642;SDS011;3357;48.050;7.800;2022-10-16T01:30:26;3.30;;;1.50;;
6642;SDS011;3357;48.050;7.800;2022-10-16T01:32:55;3.53;;;1.37;;
6642;SDS011;3357;48.050;7.800;2022-10-16T01:35:27;8.00;;;2.13;;
6642;SDS011;3357;48.050;7.800;2022-10-16T01:40:54;1.63;;;1.33;;
6642;SDS011;3357;48.050;7.800;2022-10-16T01:43:25;2.60;;;1.60;;
6642;SDS011;3357;48.050;7.800;2022-10-16T01:45:53;4.10;;;1.50;;
6642;SDS011;3357;48.050;7.800;2022-10-16T01:48:19;4.83;;;1.70;;
6642;SDS011;3357;48.050;7.800;2022-10-16T01:50:55;4.20;;;1.50;;
6642;SDS011;3357;48.050;7.800;2022-10-16T01:53:25;2.23;;;1.43;;
6642;SDS011;3357;48.050;7.800;2022-10-16T01:55:50;9.50;;;1.67;;
6642;SDS011;3357;48.050;7.800;2022-10-16T01:58:17;4.17;;;1.60;;
6642;SDS011;3357;48.050;7.800;2022-10-16T02:00:43;2.20;;;1.20;;
6642;SDS011;3357;48.050;7.800;2022-10-16T02:03:10;2.90;;;1.43;;
6642;SDS011;3357;48.050;7.800;2022-10-16T02:08:18;2.13;;;1.37;;
6642;SDS011;3357;48.050;7.800;2022-10-16T02:10:45;8.10;;;1.70;;
6642;SDS011;3357;48.050;7.800;2022-10-16T02:15:38;5.60;;;1.50;;
6642;SDS011;3357;48.050;7.800;2022-10-16T02:18:04;3.13;;;1.63;;
6642;SDS011;3357;48.050;7.800;2022-10-16T02:20:32;6.30;;;1.37;;
6642;SDS011;3357;48.050;7.800;2022-10-16T02:23:03;5.73;;;1.70;;
6642;SDS011;3357;48.050;7.800;2022-10-16T02:28:16;6.23;;;1.50;;
6642;SDS011;3357;48.050;7.800;2022-10-16T02:30:45;4.47;;;1.57;;
6642;SDS011;3357;48.050;7.800;2022-10-16T02:33:14;12.23;;;2.10;;
6642;SDS011;3357;48.050;7.800;2022-10-16T02:35:41;9.73;;;1.77;;
6642;SDS011;3357;48.050;7.800;2022-10-16T02:38:07;3.37;;;1.90;;
6642;SDS011;3357;48.050;7.800;2022-10-16T02:40:33;2.90;;;2.03;;
6642;SDS011;3357;48.050;7.800;2022-10-16T02:42:59;4.03;;;1.60;;
6642;SDS011;3357;48.050;7.800;2022-10-16T02:45:24;2.90;;;1.50;;
6642;SDS011;3357;48.050;7.800;2022-10-16T02:47:50;4.73;;;1.17;;
6642;SDS011;3357;48.050;7.800;2022-10-16T02:50:15;1.30;;;1.20;;
6642;SDS011;3357;48.050;7.800;2022-10-16T02:52:40;7.77;;;1.77;;
6642;SDS011;3357;48.050;7.800;2022-10-16T02:55:06;5.47;;;1.57;;
6642;SDS011;3357;48.050;7.800;2022-10-16T02:57:34;1.77;;;1.67;;
6642;SDS011;3357;48.050;7.800;2022-10-16T03:00:00;2.27;;;1.20;;
6642;SDS011;3357;48.050;7.800;2022-10-16T03:02:25;5.87;;;1.70;;
6642;SDS011;3357;48.050;7.800;2022-10-16T03:04:50;2.10;;;1.10;;
6642;SDS011;3357;48.050;7.800;2022-10-16T03:07:16;1.33;;;1.20;;
6642;SDS011;3357;48.050;7.800;2022-10-16T03:09:41;3.60;;;1.53;;
6642;SDS011;3357;48.050;7.800;2022-10-16T03:12:10;7.23;;;1.13;;
6642;SDS011;3357;48.050;7.800;2022-10-16T03:14:36;3.17;;;1.57;;
6642;SDS011;3357;48.050;7.800;2022-10-16T03:17:02;9.70;;;1.77;;
6642;SDS011;3357;48.050;7.800;2022-10-16T03:19:27;2.73;;;1.30;;
6642;SDS011;3357;48.050;7.800;2022-10-16T03:21:52;6.40;;;1.80;;
6642;SDS011;3357;48.050;7.800;2022-10-16T03:24:20;13.60;;;1.80;;
6642;SDS011;3357;48.050;7.800;2022-10-16T03:26:45;2.60;;;2.40;;
6642;SDS011;3357;48.050;7.800;2022-10-16T03:29:10;3.60;;;2.20;;
6642;SDS011;3357;48.050;7.800;2022-10-16T03:31:35;3.90;;;2.23;;
6642;SDS011;3357;48.050;7.800;2022-10-16T03:34:01;6.60;;;2.20;;
6642;SDS011;3357;48.050;7.800;2022-10-16T03:36:26;9.10;;;2.20;;
6642;SDS011;3357;48.050;7.800;2022-10-16T03:38:51;5.93;;;1.13;;
6642;SDS011;3357;48.050;7.800;2022-10-16T03:41:16;4.90;;;1.60;;
6642;SDS011;3357;48.050;7.800;2022-10-16T03:43:45;3.50;;;1.10;;
6642;SDS011;3357;48.050;7.800;2022-10-16T03:46:10;4.23;;;1.20;;
6642;SDS011;3357;48.050;7.800;2022-10-16T03:48:35;2.07;;;1.40;;
6642;SDS011;3357;48.050;7.800;2022-10-16T03:51:01;8.13;;;1.80;;
6642;SDS011;3357;48.050;7.800;2022-10-16T03:53:27;1.70;;;1.40;;
6642;SDS011;3357;48.050;7.800;2022-10-16T03:55:52;7.37;;;1.20;;
6642;SDS011;3357;48.050;7.800;2022-10-16T03:58:17;3.50;;;1.30;;
6642;SDS011;3357;48.050;7.800;2022-10-16T04:00:43;5.27;;;1.57;;
6642;SDS011;3357;48.050;7.800;2022-10-16T04:05:39;1.93;;;1.63;;
6642;SDS011;3357;48.050;7.800;2022-10-16T04:08:05;2.47;;;1.53;;
6642;SDS011;3357;48.050;7.800;2022-10-16T04:10:30;2.07;;;1.10;;
6642;SDS011;3357;48.050;7.800;2022-10-16T04:12:55;6.23;;;1.00;;
6642;SDS011;3357;48.050;7.800;2022-10-16T04:15:24;6.63;;;1.50;;
6642;SDS011;3357;48.050;7.800;2022-10-16T04:17:50;2.57;;;1.03;;
6642;SDS011;3357;48.050;7.800;2022-10-16T04:20:15;6.70;;;1.30;;
6642;SDS011;3357;48.050;7.800;2022-10-16T04:22:41;5.40;;;1.20;;
6642;SDS011;3357;48.050;7.800;2022-10-16T04:25:06;3.50;;;1.40;;
6642;SDS011;3357;48.050;7.800;2022-10-16T04:27:32;5.70;;;1.30;;
6642;SDS011;3357;48.050;7.800;2022-10-16T04:30:00;3.20;;;1.53;;
6642;SDS011;3357;48.050;7.800;2022-10-16T04:32:26;2.30;;;1.50;;
6642;SDS011;3357;48.050;7.800;2022-10-16T04:34:51;1.10;;;1.10;;
6642;SDS011;3357;48.050;7.800;2022-10-16T04:37:17;4.63;;;1.50;;
6642;SDS011;3357;48.050;7.800;2022-10-16T04:39:43;5.70;;;1.23;;
6642;SDS011;3357;48.050;7.800;2022-10-16T04:42:08;8.53;;;1.60;;
6642;SDS011;3357;48.050;7.800;2022-10-16T04:44:33;3.17;;;1.47;;
6642;SDS011;3357;48.050;7.800;2022-10-16T04:46:59;10.20;;;1.60;;
6642;SDS011;3357;48.050;7.800;2022-10-16T04:49:24;2.97;;;1.73;;
6642;SDS011;3357;48.050;7.800;2022-10-16T04:51:49;4.60;;;2.10;;
6642;SDS011;3357;48.050;7.800;2022-10-16T04:54:14;6.30;;;2.00;;
6642;SDS011;3357;48.050;7.800;2022-10-16T04:56:40;2.17;;;1.97;;
6642;SDS011;3357;48.050;7.800;2022-10-16T04:59:11;3.57;;;1.30;;
6642;SDS011;3357;48.050;7.800;2022-10-16T05:01:41;3.00;;;1.20;;
6642;SDS011;3357;48.050;7.800;2022-10-16T05:04:06;11.00;;;3.40;;
6642;SDS011;3357;48.050;7.800;2022-10-16T05:06:32;10.50;;;2.60;;
6642;SDS011;3357;48.050;7.800;2022-10-16T05:08:58;2.30;;;1.43;;
6642;SDS011;3357;48.050;7.800;2022-10-16T05:11:23;1.80;;;1.53;;
6642;SDS011;3357;48.050;7.800;2022-10-16T05:13:48;3.47;;;1.40;;
6642;SDS011;3357;48.050;7.800;2022-10-16T05:16:14;4.00;;;1.40;;
6642;SDS011;3357;48.050;7.800;2022-10-16T05:18:39;3.10;;;1.50;;
6642;SDS011;3357;48.050;7.800;2022-10-16T05:21:05;2.60;;;1.37;;
6642;SDS011;3357;48.050;7.800;2022-10-16T05:23:30;2.60;;;1.30;;
6642;SDS011;3357;48.050;7.800;2022-10-16T05:25:56;10.63;;;1.60;;
6642;SDS011;3357;48.050;7.800;2022-10-16T05:28:23;1.70;;;1.33;;
6642;SDS011;3357;48.050;7.800;2022-10-16T05:30:49;9.60;;;2.00;;
6642;SDS011;3357;48.050;7.800;2022-10-16T05:33:15;12.90;;;2.47;;
6642;SDS011;3357;48.050;7.800;2022-10-16T05:35:40;11.27;;;1.30;;
6642;SDS011;3357;48.050;7.800;2022-10-16T05:38:05;1.97;;;1.80;;
6642;SDS011;3357;48.050;7.800;2022-10-16T05:40:33;3.93;;;1.37;;
6642;SDS011;3357;48.050;7.800;2022-10-16T05:42:58;15.73;;;1.10;;
6642;SDS011;3357;48.050;7.800;2022-10-16T05:45:23;8.03;;;1.60;;
6642;SDS011;3357;48.050;7.800;2022-10-16T05:47:49;4.57;;;1.50;;
6642;SDS011;3357;48.050;7.800;2022-10-16T05:50:16;2.10;;;1.27;;
6642;SDS011;3357;48.050;7.800;2022-10-16T05:52:41;7.60;;;1.80;;
6642;SDS011;3357;48.050;7.800;2022-10-16T05:55:07;5.27;;;1.80;;
6642;SDS011;3357;48.050;7.800;2022-10-16T05:57:39;4.37;;;2.27;;
6642;SDS011;3357;48.050;7.800;2022-10-16T06:00:04;3.30;;;1.60;;
6642;SDS011;3357;48.050;7.800;2022-10-16T06:02:30;2.93;;;1.80;;
6642;SDS011;3357;48.050;7.800;2022-10-16T06:04:55;3.63;;;1.90;;
6642;SDS011;3357;48.050;7.800;2022-10-16T06:07:20;5.80;;;2.20;;
6642;SDS011;3357;48.050;7.800;2022-10-16T06:09:49;11.93;;;2.20;;
6642;SDS011;3357;48.050;7.800;2022-10-16T06:12:18;13.73;;;1.87;;
6642;SDS011;3357;48.050;7.800;2022-10-16T06:14:45;7.50;;;1.70;;
6642;SDS011;3357;48.050;7.800;2022-10-16T06:17:15;3.67;;;1.60;;
6642;SDS011;3357;48.050;7.800;2022-10-16T06:19:40;4.20;;;1.80;;
6642;SDS011;3357;48.050;7.800;2022-10-16T06:22:06;7.37;;;3.90;;
6642;SDS011;3357;48.050;7.800;2022-10-16T06:24:31;9.77;;;2.17;;
6642;SDS011;3357;48.050;7.800;2022-10-16T06:26:57;1.90;;;1.80;;
6642;SDS011;3357;48.050;7.800;2022-10-16T06:29:22;4.30;;;1.50;;
6642;SDS011;3357;48.050;7.800;2022-10-16T06:31:48;4.53;;;1.87;;
6642;SDS011;3357;48.050;7.800;2022-10-16T06:34:13;2.63;;;1.63;;
6642;SDS011;3357;48.050;7.800;2022-10-16T06:36:38;3.43;;;1.60;;
6642;SDS011;3357;48.050;7.800;2022-10-16T06:39:04;1.70;;;1.60;;
6642;SDS011;3357;48.050;7.800;2022-10-16T06:41:32;2.67;;;1.97;;
6642;SDS011;3357;48.050;7.800;2022-10-16T06:44:06;5.67;;;2.17;;
6642;SDS011;3357;48.050;7.800;2022-10-16T06:46:33;3.67;;;1.80;;
6642;SDS011;3357;48.050;7.800;2022-10-16T06:48:59;8.87;;;2.80;;
6642;SDS011;3357;48.050;7.800;2022-10-16T06:51:24;3.17;;;2.63;;
6642;SDS011;3357;48.050;7.800;2022-10-16T06:53:53;5.20;;;3.23;;
6642;SDS011;3357;48.050;7.800;2022-10-16T06:56:22;3.43;;;2.60;;
6642;SDS011;3357;48.050;7.800;2022-10-16T06:58:49;2.97;;;2.07;;
6642;SDS011;3357;48.050;7.800;2022-10-16T07:01:15;9.53;;;2.23;;
6642;SDS011;3357;48.050;7.800;2022-10-16T07:03:44;6.90;;;2.43;;
6642;SDS011;3357;48.050;7.800;2022-10-16T07:06:11;11.53;;;1.90;;
6642;SDS011;3357;48.050;7.800;2022-10-16T07:08:38;4.77;;;2.40;;
6642;SDS011;3357;48.050;7.800;2022-10-16T07:11:06;11.23;;;2.53;;
6642;SDS011;3357;48.050;7.800;2022-10-16T07:13:36;3.53;;;2.30;;
6642;SDS011;3357;48.050;7.800;2022-10-16T07:16:09;5.70;;;2.37;;
6642;SDS011;3357;48.050;7.800;2022-10-16T07:18:39;12.20;;;3.30;;
6642;SDS011;3357;48.050;7.800;2022-10-16T07:21:10;13.10;;;4.00;;
6642;SDS011;3357;48.050;7.800;2022-10-16T07:23:36;15.67;;;3.70;;
6642;SDS011;3357;48.050;7.800;2022-10-16T07:26:03;7.93;;;3.53;;
6642;SDS011;3357;48.050;7.800;2022-10-16T07:28:29;6.27;;;3.03;;
6642;SDS011;3357;48.050;7.800;2022-10-16T07:30:59;8.07;;;3.47;;
6642;SDS011;3357;48.050;7.800;2022-10-16T07:33:26;7.30;;;2.97;;
6642;SDS011;3357;48.050;7.800;2022-10-16T07:35:53;2.60;;;2.13;;
6642;SDS011;3357;48.050;7.800;2022-10-16T07:38:19;8.87;;;2.30;;
6642;SDS011;3357;48.050;7.800;2022-10-16T07:40:47;2.40;;;2.20;;
6642;SDS011;3357;48.050;7.800;2022-10-16T07:43:13;2.10;;;2.00;;
6642;SDS011;3357;48.050;7.800;2022-10-16T07:45:50;7.13;;;2.70;;
6642;SDS011;3357;48.050;7.800;2022-10-16T07:48:16;2.40;;;2.20;;
6642;SDS011;3357;48.050;7.800;2022-10-16T07:50:42;4.37;;;2.10;;
6642;SDS011;3357;48.050;7.800;2022-10-16T07:53:08;2.77;;;2.57;;
6642;SDS011;3357;48.050;7.800;2022-10-16T07:55:33;8.93;;;1.90;;
6642;SDS011;3357;48.050;7.800;2022-10-16T07:57:59;7.93;;;1.90;;
6642;SDS011;3357;48.050;7.800;2022-10-16T08:00:24;4.23;;;1.97;;
6642;SDS011;3357;48.050;7.800;2022-10-16T08:02:50;3.17;;;1.73;;
6642;SDS011;3357;48.050;7.800;2022-10-16T08:05:16;4.60;;;1.87;;
6642;SDS011;3357;48.050;7.800;2022-10-16T08:07:42;8.67;;;1.50;;
6642;SDS011;3357;48.050;7.800;2022-10-16T08:10:18;5.70;;;1.60;;
6642;SDS011;3357;48.050;7.800;2022-10-16T08:12:45;5.03;;;1.80;;
6642;SDS011;3357;48.050;7.800;2022-10-16T08:15:10;5.03;;;1.67;;
6642;SDS011;3357;48.050;7.800;2022-10-16T08:17:38;3.47;;;1.53;;
6642;SDS011;3357;48.050;7.800;2022-10-16T08:20:05;2.57;;;1.60;;
6642;SDS011;3357;48.050;7.800;2022-10-16T08:22:31;4.93;;;1.53;;
6642;SDS011;3357;48.050;7.800;2022-10-16T08:24:56;5.53;;;1.70;;
6642;SDS011;3357;48.050;7.800;2022-10-16T08:27:21;5.40;;;1.43;;
6642;SDS011;3357;48.050;7.800;2022-10-16T08:29:48;3.63;;;2.70;;
6642;SDS011;3357;48.050;7.800;2022-10-16T08:32:13;5.83;;;1.60;;
6642;SDS011;3357;48.050;7.800;2022-10-16T08:34:38;2.53;;;1.53;;
6642;SDS011;3357;48.050;7.800;2022-10-16T08:37:04;2.00;;;1.63;;
6642;SDS011;3357;48.050;7.800;2022-10-16T08:39:29;2.93;;;1.80;;
6642;SDS011;3357;48.050;7.800;2022-10-16T08:50:25;7.50;;;1.90;;
6642;SDS011;3357;48.050;7.800;2022-10-16T08:52:52;6.93;;;1.83;;
6642;SDS011;3357;48.050;7.800;2022-10-16T08:55:38;3.50;;;1.93;;
6642;SDS011;3357;48.050;7.800;2022-10-16T08:58:13;6.53;;;2.60;;
6642;SDS011;3357;48.050;7.800;2022-10-16T09:00:40;1.77;;;1.23;;
6642;SDS011;3357;48.050;7.800;2022-10-16T09:03:13;2.07;;;1.30;;
6642;SDS011;3357;48.050;7.800;2022-10-16T09:11:22;4.77;;;1.70;;
6642;SDS011;3357;48.050;7.800;2022-10-16T09:14:05;4.30;;;1.50;;
6642;SDS011;3357;48.050;7.800;2022-10-16T09:16:39;4.00;;;2.90;;
6642;SDS011;3357;48.050;7.800;2022-10-16T09:21:44;6.93;;;2.23;;
6642;SDS011;3357;48.050;7.800;2022-10-16T09:26:40;2.67;;;1.97;;
6642;SDS011;3357;48.050;7.800;2022-10-16T09:29:05;9.50;;;2.20;;
6642;SDS011;3357;48.050;7.800;2022-10-16T09:31:31;2.07;;;1.87;;
6642;SDS011;3357;48.050;7.800;2022-10-16T09:34:00;2.00;;;1.90;;
6642;SDS011;3357;48.050;7.800;2022-10-16T09:36:39;7.73;;;1.70;;
6642;SDS011;3357;48.050;7.800;2022-10-16T09:39:09;2.13;;;1.73;;
6642;SDS011;3357;48.050;7.800;2022-10-16T09:41:37;2.90;;;1.77;;
6642;SDS011;3357;48.050;7.800;2022-10-16T09:44:04;3.70;;;1.60;;
6642;SDS011;3357;48.050;7.800;2022-10-16T09:49:16;7.83;;;2.80;;
6642;SDS011;3357;48.050;7.800;2022-10-16T09:51:49;4.57;;;1.80;;
6642;SDS011;3357;48.050;7.800;2022-10-16T09:54:16;4.40;;;1.87;;
6642;SDS011;3357;48.050;7.800;2022-10-16T09:56:43;8.97;;;2.73;;
6642;SDS011;3357;48.050;7.800;2022-10-16T09:59:22;2.80;;;1.43;;
6642;SDS011;3357;48.050;7.800;2022-10-16T10:01:56;4.53;;;1.30;;
6642;SDS011;3357;48.050;7.800;2022-10-16T10:04:24;4.93;;;2.10;;
6642;SDS011;3357;48.050;7.800;2022-10-16T10:06:55;10.47;;;1.57;;
6642;SDS011;3357;48.050;7.800;2022-10-16T10:09:23;6.27;;;1.77;;
6642;SDS011;3357;48.050;7.800;2022-10-16T10:11:56;5.50;;;1.83;;
6642;SDS011;3357;48.050;7.800;2022-10-16T10:14:23;1.97;;;1.60;;
6642;SDS011;3357;48.050;7.800;2022-10-16T10:17:11;1.77;;;1.27;;
6642;SDS011;3357;48.050;7.800;2022-10-16T10:19:44;3.63;;;1.27;;
6642;SDS011;3357;48.050;7.800;2022-10-16T10:25:16;6.57;;;2.07;;
6642;SDS011;3357;48.050;7.800;2022-10-16T10:33:20;6.70;;;1.63;;
6642;SDS011;3357;48.050;7.800;2022-10-16T10:43:59;4.63;;;1.60;;
6642;SDS011;3357;48.050;7.800;2022-10-16T10:46:32;6.87;;;1.73;;
6642;SDS011;3357;48.050;7.800;2022-10-16T10:50:02;2.30;;;1.77;;
6642;SDS011;3357;48.050;7.800;2022-10-16T10:54:56;1.77;;;1.63;;
6642;SDS011;3357;48.050;7.800;2022-10-16T10:57:37;1.77;;;1.20;;
6642;SDS011;3357;48.050;7.800;2022-10-16T11:06:07;3.67;;;1.23;;
6642;SDS011;3357;48.050;7.800;2022-10-16T11:08:36;15.83;;;1.80;;
6642;SDS011;3357;48.050;7.800;2022-10-16T11:11:14;3.17;;;1.60;;
6642;SDS011;3357;48.050;7.800;2022-10-16T11:13:55;2.50;;;1.87;;
6642;SDS011;3357;48.050;7.800;2022-10-16T11:16:26;1.90;;;1.20;;
6642;SDS011;3357;48.050;7.800;2022-10-16T11:21:51;5.37;;;1.27;;
6642;SDS011;3357;48.050;7.800;2022-10-16T11:24:32;2.93;;;1.27;;
6642;SDS011;3357;48.050;7.800;2022-10-16T11:27:04;1.90;;;1.20;;
6642;SDS011;3357;48.050;7.800;2022-10-16T11:29:33;1.77;;;1.10;;
6642;SDS011;3357;48.050;7.800;2022-10-16T11:32:05;1.70;;;1.10;;
6642;SDS011;3357;48.050;7.800;2022-10-16T11:34:44;3.23;;;1.70;;
6642;SDS011;3357;48.050;7.800;2022-10-16T11:37:28;11.10;;;2.50;;
6642;SDS011;3357;48.050;7.800;2022-10-16T11:39:58;2.00;;;1.80;;
6642;SDS011;3357;48.050;7.800;2022-10-16T11:42:32;1.50;;;1.40;;
6642;SDS011;3357;48.050;7.800;2022-10-16T11:45:03;3.10;;;1.10;;
6642;SDS011;3357;48.050;7.800;2022-10-16T11:53:04;3.50;;;1.20;;
6642;SDS011;3357;48.050;7.800;2022-10-16T11:55:36;2.50;;;1.00;;
6642;SDS011;3357;48.050;7.800;2022-10-16T11:58:14;1.20;;;1.10;;
6642;SDS011;3357;48.050;7.800;2022-10-16T12:00:52;1.87;;;1.10;;
6642;SDS011;3357;48.050;7.800;2022-10-16T12:03:20;4.13;;;1.10;;
6642;SDS011;3357;48.050;7.800;2022-10-16T12:08:36;7.80;;;1.13;;
6642;SDS011;3357;48.050;7.800;2022-10-16T12:11:37;0.90;;;0.90;;
6642;SDS011;3357;48.050;7.800;2022-10-16T12:19:26;1.07;;;0.90;;
6642;SDS011;3357;48.050;7.800;2022-10-16T12:21:56;2.17;;;0.90;;
6642;SDS011;3357;48.050;7.800;2022-10-16T12:26:57;1.43;;;0.93;;
6642;SDS011;3357;48.050;7.800;2022-10-16T12:29:38;1.67;;;1.03;;
6642;SDS011;3357;48.050;7.800;2022-10-16T12:34:58;5.17;;;0.90;;
6642;SDS011;3357;48.050;7.800;2022-10-16T12:37:25;3.17;;;0.97;;
6642;SDS011;3357;48.050;7.800;2022-10-16T12:39:53;1.87;;;0.90;;
6642;SDS011;3357;48.050;7.800;2022-10-16T12:44:52;0.80;;;0.80;;
6642;SDS011;3357;48.050;7.800;2022-10-16T12:49:56;2.43;;;1.07;;
6642;SDS011;3357;48.050;7.800;2022-10-16T12:55:02;2.27;;;1.00;;
6642;SDS011;3357;48.050;7.800;2022-10-16T12:59:59;4.50;;;0.80;;
6642;SDS011;3357;48.050;7.800;2022-10-16T13:05:32;2.17;;;0.90;;
6642;SDS011;3357;48.050;7.800;2022-10-16T13:08:24;3.80;;;1.00;;
6642;SDS011;3357;48.050;7.800;2022-10-16T13:11:05;1.33;;;0.90;;
6642;SDS011;3357;48.050;7.800;2022-10-16T13:16:09;1.20;;;0.90;;
6642;SDS011;3357;48.050;7.800;2022-10-16T13:23:53;1.00;;;0.90;;
6642;SDS011;3357;48.050;7.800;2022-10-16T13:26:32;1.63;;;0.77;;
6642;SDS011;3357;48.050;7.800;2022-10-16T13:29:29;0.90;;;0.90;;
6642;SDS011;3357;48.050;7.800;2022-10-16T13:31:55;1.27;;;0.90;;
6642;SDS011;3357;48.050;7.800;2022-10-16T13:34:21;2.33;;;0.90;;
6642;SDS011;3357;48.050;7.800;2022-10-16T13:36:51;1.83;;;0.90;;
6642;SDS011;3357;48.050;7.800;2022-10-16T13:44:35;2.17;;;0.90;;
6642;SDS011;3357;48.050;7.800;2022-10-16T13:47:04;0.90;;;0.90;;
6642;SDS011;3357;48.050;7.800;2022-10-16T13:49:29;5.10;;;1.13;;
6642;SDS011;3357;48.050;7.800;2022-10-16T13:51:58;4.43;;;0.90;;
6642;SDS011;3357;48.050;7.800;2022-10-16T13:54:25;2.23;;;0.80;;
6642;SDS011;3357;48.050;7.800;2022-10-16T13:56:52;1.07;;;0.97;;
6642;SDS011;3357;48.050;7.800;2022-10-16T13:59:25;1.00;;;0.90;;
6642;SDS011;3357;48.050;7.800;2022-10-16T14:01:52;2.43;;;1.03;;
6642;SDS011;3357;48.050;7.800;2022-10-16T14:04:19;1.43;;;0.97;;
6642;SDS011;3357;48.050;7.800;2022-10-16T14:06:45;1.60;;;0.90;;
6642;SDS011;3357;48.050;7.800;2022-10-16T14:09:28;1.17;;;0.97;;
6642;SDS011;3357;48.050;7.800;2022-10-16T14:11:55;2.33;;;0.90;;
6642;SDS011;3357;48.050;7.800;2022-10-16T14:14:23;0.83;;;0.70;;
6642;SDS011;3357;48.050;7.800;2022-10-16T14:16:49;1.77;;;0.90;;
6642;SDS011;3357;48.050;7.800;2022-10-16T14:19:18;0.90;;;0.90;;
6642;SDS011;3357;48.050;7.800;2022-10-16T14:21:51;2.30;;;1.00;;
6642;SDS011;3357;48.050;7.800;2022-10-16T14:26:54;2.20;;;0.90;;
6642;SDS011;3357;48.050;7.800;2022-10-16T14:29:21;1.07;;;0.97;;
6642;SDS011;3357;48.050;7.800;2022-10-16T14:32:00;2.57;;;1.10;;
6642;SDS011;3357;48.050;7.800;2022-10-16T14:37:00;3.43;;;1.00;;
6642;SDS011;3357;48.050;7.800;2022-10-16T14:39:31;2.23;;;0.90;;
6642;SDS011;3357;48.050;7.800;2022-10-16T14:41:57;5.13;;;1.30;;
6642;SDS011;3357;48.050;7.800;2022-10-16T14:44:26;3.50;;;1.00;;
6642;SDS011;3357;48.050;7.800;2022-10-16T14:46:53;4.53;;;1.10;;
6642;SDS011;3357;48.050;7.800;2022-10-16T14:49:19;2.03;;;0.90;;
6642;SDS011;3357;48.050;7.800;2022-10-16T14:51:45;2.03;;;0.93;;
6642;SDS011;3357;48.050;7.800;2022-10-16T14:54:15;1.47;;;1.00;;
6642;SDS011;3357;48.050;7.800;2022-10-16T14:59:38;2.33;;;1.53;;
6642;SDS011;3357;48.050;7.800;2022-10-16T15:04:45;3.73;;;0.93;;
6642;SDS011;3357;48.050;7.800;2022-10-16T15:07:11;2.77;;;1.40;;
6642;SDS011;3357;48.050;7.800;2022-10-16T15:09:37;1.70;;;1.00;;
6642;SDS011;3357;48.050;7.800;2022-10-16T15:12:02;2.40;;;1.87;;
6642;SDS011;3357;48.050;7.800;2022-10-16T15:14:27;1.77;;;1.00;;
6642;SDS011;3357;48.050;7.800;2022-10-16T15:16:53;2.10;;;1.10;;
6642;SDS011;3357;48.050;7.800;2022-10-16T15:19:18;3.90;;;1.23;;
6642;SDS011;3357;48.050;7.800;2022-10-16T15:21:43;1.63;;;1.13;;
6642;SDS011;3357;48.050;7.800;2022-10-16T15:24:11;1.07;;;1.00;;
6642;SDS011;3357;48.050;7.800;2022-10-16T15:26:38;2.07;;;1.50;;
6642;SDS011;3357;48.050;7.800;2022-10-16T15:29:04;1.33;;;1.23;;
6642;SDS011;3357;48.050;7.800;2022-10-16T15:31:30;2.40;;;1.30;;
6642;SDS011;3357;48.050;7.800;2022-10-16T15:33:56;3.23;;;1.20;;
6642;SDS011;3357;48.050;7.800;2022-10-16T15:36:32;3.13;;;1.07;;
6642;SDS011;3357;48.050;7.800;2022-10-16T15:39:01;1.20;;;1.10;;
6642;SDS011;3357;48.050;7.800;2022-10-16T15:41:45;3.57;;;1.60;;
6642;SDS011;3357;48.050;7.800;2022-10-16T15:44:18;2.03;;;1.33;;
6642;SDS011;3357;48.050;7.800;2022-10-16T15:46:44;2.30;;;1.10;;
6642;SDS011;3357;48.050;7.800;2022-10-16T15:49:13;4.97;;;1.20;;
6642;SDS011;3357;48.050;7.800;2022-10-16T15:51:39;7.70;;;1.10;;
6642;SDS011;3357;48.050;7.800;2022-10-16T15:54:05;1.83;;;1.73;;
6642;SDS011;3357;48.050;7.800;2022-10-16T15:56:31;2.67;;;1.90;;
6642;SDS011;3357;48.050;7.800;2022-10-16T15:58:58;3.33;;;2.97;;
6642;SDS011;3357;48.050;7.800;2022-10-16T16:01:24;4.10;;;1.80;;
6642;SDS011;3357;48.050;7.800;2022-10-16T16:03:52;1.60;;;1.50;;
6642;SDS011;3357;48.050;7.800;2022-10-16T16:06:18;2.50;;;2.30;;
6642;SDS011;3357;48.050;7.800;2022-10-16T16:08:43;1.83;;;1.60;;
6642;SDS011;3357;48.050;7.800;2022-10-16T16:11:12;1.57;;;1.47;;
6642;SDS011;3357;48.050;7.800;2022-10-16T16:13:39;2.60;;;1.20;;
6642;SDS011;3357;48.050;7.800;2022-10-16T16:16:09;4.80;;;1.27;;
6642;SDS011;3357;48.050;7.800;2022-10-16T16:18:38;1.67;;;1.30;;
6642;SDS011;3357;48.050;7.800;2022-10-16T16:21:04;10.10;;;1.73;;
6642;SDS011;3357;48.050;7.800;2022-10-16T16:23:30;7.43;;;1.97;;
6642;SDS011;3357;48.050;7.800;2022-10-16T16:26:02;5.50;;;2.17;;
6642;SDS011;3357;48.050;7.800;2022-10-16T16:28:40;3.90;;;2.40;;
6642;SDS011;3357;48.050;7.800;2022-10-16T16:31:06;2.93;;;2.17;;
6642;SDS011;3357;48.050;7.800;2022-10-16T16:33:32;4.13;;;2.23;;
6642;SDS011;3357;48.050;7.800;2022-10-16T16:35:58;7.57;;;2.27;;
6642;SDS011;3357;48.050;7.800;2022-10-16T16:38:24;3.93;;;2.30;;
6642;SDS011;3357;48.050;7.800;2022-10-16T16:40:49;3.50;;;2.30;;
6642;SDS011;3357;48.050;7.800;2022-10-16T16:43:16;4.00;;;2.27;;
6642;SDS011;3357;48.050;7.800;2022-10-16T16:45:41;4.07;;;1.77;;
6642;SDS011;3357;48.050;7.800;2022-10-16T16:48:07;8.60;;;2.00;;
6642;SDS011;3357;48.050;7.800;2022-10-16T16:50:35;7.37;;;1.87;;
6642;SDS011;3357;48.050;7.800;2022-10-16T16:53:02;4.20;;;1.97;;
6642;SDS011;3357;48.050;7.800;2022-10-16T16:55:28;8.67;;;2.17;;
6642;SDS011;3357;48.050;7.800;2022-10-16T16:57:53;16.03;;;2.20;;
6642;SDS011;3357;48.050;7.800;2022-10-16T17:00:19;6.83;;;2.00;;
6642;SDS011;3357;48.050;7.800;2022-10-16T17:02:47;2.90;;;1.60;;
6642;SDS011;3357;48.050;7.800;2022-10-16T17:05:14;17.13;;;2.07;;
6642;SDS011;3357;48.050;7.800;2022-10-16T17:07:39;8.50;;;1.63;;
6642;SDS011;3357;48.050;7.800;2022-10-16T17:10:07;12.07;;;2.10;;
6642;SDS011;3357;48.050;7.800;2022-10-16T17:12:33;4.33;;;1.87;;
6642;SDS011;3357;48.050;7.800;2022-10-16T17:14:58;10.67;;;2.10;;
6642;SDS011;3357;48.050;7.800;2022-10-16T17:17:24;5.10;;;1.80;;
6642;SDS011;3357;48.050;7.800;2022-10-16T17:19:51;8.60;;;2.10;;
6642;SDS011;3357;48.050;7.800;2022-10-16T17:22:18;5.77;;;2.00;;
6642;SDS011;3357;48.050;7.800;2022-10-16T17:24:47;16.43;;;2.90;;
6642;SDS011;3357;48.050;7.800;2022-10-16T17:27:14;19.97;;;2.30;;
6642;SDS011;3357;48.050;7.800;2022-10-16T17:29:40;8.73;;;2.73;;
6642;SDS011;3357;48.050;7.800;2022-10-16T17:32:05;9.83;;;2.63;;
6642;SDS011;3357;48.050;7.800;2022-10-16T17:34:31;10.93;;;2.70;;